METAR Data
IDs: Format: Raw Decoded Include TAF

Data at: 1526 UTC 18 Aug 2019

PAIK 181456Z AUTO VRB03KT 10SM CLR 02/01 A3055 RMK AO2 SLP347 T00170006 56011 FZRANO TSNO
PAIK 181356Z AUTO VRB03KT 10SM CLR 02/01 A3056 RMK AO2 SLP352 T00220011 FZRANO TSNO
PAIK 181256Z AUTO 33009KT 10SM CLR 02/01 A3057 RMK AO2 SLP354 T00220011 FZRANO TSNO
PAIK 181156Z AUTO 33007KT 10SM CLR 04/02 A3059 RMK AO2 SLP359 T00440022 10122 20044 58005 TSNO
PAIK 181056Z AUTO 00000KT 10SM CLR 06/06 A3059 RMK AO2 SLP361 T00610056 TSNO
PAIK 180956Z AUTO 00000KT 10SM CLR 06/05 A3060 RMK AO2 SLP362 T00610050 TSNO
PAIK 180856Z AUTO 34003KT 10SM CLR 07/06 A3060 RMK AO2 SLP364 T00670061 401610039 58002 TSNO
PAIK 180756Z AUTO 00000KT 10SM CLR 08/07 A3061 RMK AO2 SLP366 T00830067 TSNO
PAIK 180656Z AUTO 22006KT 10SM CLR 11/07 A3061 RMK AO2 SLP366 T01060067 TSNO
PAIK 180556Z AUTO 22003KT 10SM CLR 12/06 A3061 RMK AO2 SLP366 T01220056 10161 20122 56011 TSNO
PAIK 180456Z AUTO 24004KT 10SM CLR 14/06 A3061 RMK AO2 SLP369 T01440056 TSNO
PAIK 180356Z AUTO 21004KT 9SM CLR 16/05 A3062 RMK AO2 SLP372 T01560050 TSNO
PAIK 180256Z AUTO 19005KT 9SM CLR 16/04 A3064 RMK AO2 SLP377 T01610044 56010 TSNO
PAIK 180156Z AUTO 18003KT 10SM CLR 16/04 A3064 RMK AO2 SLP378 T01560039 TSNO
PAIK 180056Z AUTO VRB04KT 10SM CLR 16/04 A3065 RMK AO2 SLP382 T01560039 TSNO
PAIK 172356Z AUTO 00000KT 10SM CLR 16/01 A3067 RMK AO2 SLP387 T01560006 10156 20078 58008 TSNO
PAIK 172256Z AUTO 33003KT 10SM CLR 14/01 A3068 RMK AO2 SLP390 T01440011 TSNO
PAIK 172156Z AUTO 15004KT 10SM CLR 13/03 A3069 RMK AO2 SLP393 T01330028 TSNO
PAIK 172056Z AUTO VRB03KT 10SM CLR 13/03 A3069 RMK AO2 SLP395 T01280028 50006 TSNO
PAIK 171956Z AUTO 33004KT 10SM CLR 12/02 A3069 RMK AO2 SLP396 T01170017 TSNO
PAIK 171856Z AUTO 33007KT 10SM CLR 10/01 A3069 RMK AO2 SLP393 T01000011 TSNO
PAIK 171756Z AUTO 35008KT 10SM CLR 08/01 A3067 RMK AO2 SLP389 T00780011 10078 20039 51006 TSNO
PAIK 171656Z AUTO 36007KT 10SM CLR 07/00 A3067 RMK AO2 SLP387 T00670000 TSNO
PAIK 171556Z AUTO 01006KT 10SM CLR 04/00 A3067 RMK AO2 SLP387 T00440000 TSNO
PAIK 171456Z AUTO 33009KT 10SM CLR 06/M01 A3065 RMK AO2 SLP382 T00561006 51012 TSNO
PAIK 171356Z AUTO VRB04KT 10SM CLR 04/M01 A3065 RMK AO2 SLP380 T00441006 TSNO
PAIK 171256Z AUTO 35010KT 10SM CLR 06/M01 A3063 RMK AO2 SLP375 T00561006 TSNO
PAIK 171156Z AUTO 35007KT 10SM CLR 06/00 A3062 RMK AO2 SLP370 T00610000 10117 20061 51017 TSNO
PAIK 171056Z AUTO 34008KT 10SM CLR 07/01 A3060 RMK AO2 SLP365 T00670006 TSNO
PAIK 170956Z AUTO 34009KT 10SM CLR 07/01 A3059 RMK AO2 SLP360 T00720006 TSNO
PAIK 170856Z AUTO 34009KT 10SM CLR 08/00 A3057 RMK AO2 SLP353 T00780000 401440056 53022 TSNO
PAIK 170756Z AUTO 34010KT 10SM CLR 09/01 A3054 RMK AO2 SLP345 T00890011 TSNO
PAIK 170656Z AUTO 35008KT 8SM CLR 10/03 A3052 RMK AO2 SLP337 T01000028 TSNO
PAIK 170556Z AUTO 35006KT 10SM CLR 12/04 A3050 RMK AO2 SLP331 T01170039 10144 20117 51024 TSNO
PAIK 170456Z AUTO 34006KT 10SM CLR 13/04 A3048 RMK AO2 SLP324 T01280039 TSNO
PAIK 170356Z AUTO 36013G17KT 10SM CLR 14/04 A3046 RMK AO2 SLP318 T01390044 TSNO